createdAt,value
2017-03-13T00:00:16.696Z,78.87
2017-03-13T00:01:26.568Z,78.77
2017-03-13T00:02:36.419Z,78.73
2017-03-13T00:03:46.668Z,78.92
2017-03-13T00:04:56.892Z,78.73
2017-03-13T00:06:05.970Z,79.21
2017-03-13T00:07:16.194Z,79.02
2017-03-13T00:08:26.418Z,79.58
2017-03-13T00:09:36.285Z,79.11
2017-03-13T00:10:46.138Z,79.3
2017-03-13T00:11:55.607Z,79.87
2017-03-13T00:13:05.062Z,79.68
2017-03-13T00:14:14.539Z,79.39
2017-03-13T00:15:24.010Z,79.87
2017-03-13T00:16:33.487Z,79.96
2017-03-13T00:17:43.357Z,80.34
2017-03-13T00:18:53.234Z,79.87
2017-03-13T00:20:03.068Z,79.87
2017-03-13T00:21:12.928Z,79.87
2017-03-13T00:22:23.540Z,79.87
2017-03-13T00:23:33.778Z,80.53
2017-03-13T00:24:44.028Z,80.44
2017-03-13T00:25:54.257Z,79.87
2017-03-13T00:27:04.480Z,80.53
2017-03-13T00:28:14.723Z,80.34
2017-03-13T00:29:24.198Z,80.63
2017-03-13T00:30:34.084Z,80.63
2017-03-13T00:31:44.184Z,80.63
2017-03-13T00:32:54.794Z,80.72
2017-03-13T00:34:05.425Z,80.63
2017-03-13T00:35:14.131Z,80.63
2017-03-13T00:36:23.997Z,80.53
2017-03-13T00:37:33.089Z,80.63
2017-03-13T00:38:42.939Z,80.63
2017-03-13T00:39:52.408Z,80.63
2017-03-13T00:41:02.274Z,80.53
2017-03-13T00:42:12.117Z,80.25
2017-03-13T00:43:21.969Z,80.25
2017-03-13T00:44:32.208Z,80.15
2017-03-13T00:45:42.426Z,80.06
2017-03-13T00:46:51.895Z,80.15
2017-03-13T00:48:01.726Z,80.53
2017-03-13T00:49:11.847Z,80.15
2017-03-13T00:50:22.079Z,80.15
2017-03-13T00:51:31.915Z,80.15
2017-03-13T00:52:42.152Z,80.06
2017-03-13T00:53:52.414Z,80.25
2017-03-13T00:55:02.286Z,80.34
2017-03-13T00:56:11.350Z,79.87
2017-03-13T00:57:21.586Z,80.15
2017-03-13T00:58:31.818Z,80.25
2017-03-13T00:59:42.059Z,80.15
2017-03-13T01:00:51.895Z,80.15
2017-03-13T01:02:01.375Z,80.25
2017-03-13T01:03:10.836Z,80.06
2017-03-13T01:04:21.483Z,80.06
2017-03-13T01:05:31.709Z,80.15
2017-03-13T01:06:42.213Z,80.06
2017-03-13T01:07:52.074Z,80.63
2017-03-13T01:09:02.669Z,80.44
2017-03-13T01:10:12.496Z,80.53
2017-03-13T01:11:22.719Z,80.44
2017-03-13T01:12:32.965Z,80.63
2017-03-13T01:13:42.805Z,80.82
2017-03-13T01:14:53.416Z,80.44
2017-03-13T01:16:02.871Z,80.82
2017-03-13T01:17:13.104Z,81.1
2017-03-13T01:18:23.594Z,80.53
2017-03-13T01:19:33.851Z,80.34
2017-03-13T01:20:44.090Z,80.82
2017-03-13T01:21:53.929Z,80.82
2017-03-13T01:23:03.782Z,80.87
2017-03-13T01:24:13.653Z,80.96
2017-03-13T01:25:23.110Z,80.96
2017-03-13T01:26:32.586Z,80.96
2017-03-13T01:27:42.829Z,80.87
2017-03-13T01:28:52.687Z,81.15
2017-03-13T01:30:02.544Z,81.15
2017-03-13T01:31:12.384Z,81.06
2017-03-13T01:32:22.605Z,80.96
2017-03-13T01:33:33.212Z,81.44
2017-03-13T01:34:43.453Z,81.44
2017-03-13T01:35:53.162Z,81.25
2017-03-13T01:37:03.030Z,81.63
2017-03-13T01:38:12.877Z,81.34
2017-03-13T01:39:23.473Z,81.44
2017-03-13T01:40:33.739Z,81.44
2017-03-13T01:41:43.594Z,81.53
2017-03-13T01:42:53.426Z,81.44
2017-03-13T01:44:03.274Z,82.29
2017-03-13T01:45:13.537Z,82.2
2017-03-13T01:46:23.770Z,81.44
2017-03-13T01:47:33.227Z,82.1
2017-03-13T01:48:42.716Z,82.01
2017-03-13T01:49:52.570Z,82.1
2017-03-13T01:51:02.411Z,82.01
2017-03-13T01:52:11.867Z,82.1
2017-03-13T01:53:22.110Z,82.2
2017-03-13T01:54:31.576Z,82.1
2017-03-13T01:55:42.193Z,81.63
2017-03-13T01:56:52.050Z,82.01
2017-03-13T01:58:02.274Z,81.82
2017-03-13T01:59:12.409Z,82.01
2017-03-13T02:00:22.637Z,82.1
2017-03-13T02:01:32.481Z,82.01
2017-03-13T02:02:41.979Z,82.1
2017-03-13T02:03:52.234Z,82.29
2017-03-13T02:05:02.450Z,81.53
2017-03-13T02:06:11.919Z,81.53
2017-03-13T02:07:22.520Z,81.34
2017-03-13T02:08:32.356Z,81.34
2017-03-13T02:09:41.836Z,81.72
2017-03-13T02:10:51.691Z,81.44
2017-03-13T02:12:00.758Z,81.72
2017-03-13T02:13:10.216Z,81.53
2017-03-13T02:14:20.470Z,81.25
2017-03-13T02:15:31.071Z,81.44
2017-03-13T02:16:40.816Z,81.44
2017-03-13T02:17:50.645Z,81.25
2017-03-13T02:18:59.724Z,81.72
2017-03-13T02:20:09.177Z,81.63
2017-03-13T02:21:19.426Z,81.44
2017-03-13T02:22:28.530Z,81.72
2017-03-13T02:23:38.763Z,81.34
2017-03-13T02:24:49.369Z,81.53
2017-03-13T02:25:59.220Z,81.25
2017-03-13T02:27:08.676Z,81.63
2017-03-13T02:28:19.173Z,81.44
2017-03-13T02:29:29.035Z,81.72
2017-03-13T02:30:38.917Z,82.1
2017-03-13T02:31:48.358Z,81.82
2017-03-13T02:32:57.827Z,81.82
2017-03-13T02:34:07.324Z,82.1
2017-03-13T02:35:17.555Z,81.92
2017-03-13T02:36:27.769Z,82.1
2017-03-13T02:37:37.637Z,81.72
2017-03-13T02:38:47.123Z,82.1
2017-03-13T02:39:57.614Z,82.2
2017-03-13T02:41:07.458Z,81.53
2017-03-13T02:42:17.321Z,81.21
2017-03-13T02:43:27.187Z,81.77
2017-03-13T02:44:37.786Z,82.25
2017-03-13T02:45:48.029Z,81.87
2017-03-13T02:46:57.896Z,81.77
2017-03-13T02:48:07.740Z,82.06
2017-03-13T02:49:16.828Z,82.63
2017-03-13T02:50:27.055Z,82.72
2017-03-13T02:51:36.900Z,82.53
2017-03-13T02:52:47.515Z,82.63
2017-03-13T02:53:58.129Z,82.72
2017-03-13T02:55:07.205Z,82.34
2017-03-13T02:56:17.454Z,82.25
2017-03-13T02:57:27.179Z,82.25
2017-03-13T02:58:37.429Z,82.25
2017-03-13T02:59:46.902Z,82.63
2017-03-13T03:00:56.388Z,82.15
2017-03-13T03:02:05.847Z,82.63
2017-03-13T03:03:16.375Z,82.63
2017-03-13T03:04:25.830Z,82.44
2017-03-13T03:05:35.307Z,82.72
2017-03-13T03:06:45.145Z,82.53
2017-03-13T03:07:55.749Z,82.72
2017-03-13T03:09:05.649Z,82.34
2017-03-13T03:10:16.245Z,82.53
2017-03-13T03:11:26.848Z,82.53
2017-03-13T03:12:37.066Z,82.44
2017-03-13T03:13:46.916Z,82.53
2017-03-13T03:14:57.161Z,82.63
2017-03-13T03:16:06.625Z,82.72
2017-03-13T03:17:16.500Z,82.44
2017-03-13T03:18:26.336Z,82.72
2017-03-13T03:19:36.181Z,82.53
2017-03-13T03:20:46.219Z,82.53
2017-03-13T03:21:56.068Z,82.63
2017-03-13T03:23:05.913Z,82.44
2017-03-13T03:24:15.366Z,82.53
2017-03-13T03:25:25.590Z,82.53
2017-03-13T03:26:35.425Z,82.15
2017-03-13T03:27:45.261Z,82.72
2017-03-13T03:28:54.797Z,82.44
2017-03-13T03:30:04.640Z,82.34
2017-03-13T03:31:13.336Z,82.25
2017-03-13T03:32:23.940Z,82.53
2017-03-13T03:33:33.822Z,82.34
2017-03-13T03:34:44.085Z,82.34
2017-03-13T03:35:53.576Z,82.63
2017-03-13T03:37:04.175Z,82.15
2017-03-13T03:38:15.046Z,82.53
2017-03-13T03:39:24.914Z,82.82
2017-03-13T03:40:34.774Z,83.01
2017-03-13T03:41:44.229Z,82.53
2017-03-13T03:42:54.065Z,83.01
2017-03-13T03:44:04.663Z,82.63
2017-03-13T03:45:14.510Z,82.91
2017-03-13T03:46:24.358Z,83.01
2017-03-13T03:47:34.212Z,82.82
2017-03-13T03:48:44.066Z,82.82
2017-03-13T03:49:53.726Z,83.01
2017-03-13T03:51:03.582Z,82.53
2017-03-13T03:52:13.425Z,82.82
2017-03-13T03:53:23.288Z,83.58
2017-03-13T03:54:33.127Z,82.72
2017-03-13T03:55:43.371Z,82.91
2017-03-13T03:56:53.212Z,82.91
2017-03-13T03:58:02.677Z,83.01
2017-03-13T03:59:12.909Z,83.01
2017-03-13T04:00:23.142Z,83.01
2017-03-13T04:01:32.597Z,83.91
2017-03-13T04:02:42.113Z,83.15
2017-03-13T04:03:52.341Z,83.29
2017-03-13T04:05:02.190Z,83.67
2017-03-13T04:06:12.042Z,83.44
2017-03-13T04:07:22.524Z,82.91
2017-03-13T04:08:31.976Z,82.87
2017-03-13T04:09:41.819Z,82.91
2017-03-13T04:10:50.888Z,83.1
2017-03-13T04:12:00.373Z,82.91
2017-03-13T04:13:10.839Z,82.68
2017-03-13T04:14:21.067Z,82.5
2017-03-13T04:15:30.518Z,82.97
2017-03-13T04:16:39.986Z,82.78
2017-03-13T04:17:49.459Z,83.53
2017-03-13T04:18:59.315Z,83.25
2017-03-13T04:20:09.145Z,83.53
2017-03-13T04:21:18.974Z,83.15
2017-03-13T04:22:29.193Z,83.1
2017-03-13T04:23:39.045Z,83.29
2017-03-13T04:24:49.156Z,83.06
2017-03-13T04:25:59.392Z,82.68
2017-03-13T04:27:09.634Z,83.34
2017-03-13T04:28:19.490Z,82.78
2017-03-13T04:29:29.740Z,82.78
2017-03-13T04:30:39.957Z,82.97
2017-03-13T04:31:49.427Z,83.15
2017-03-13T04:32:59.675Z,83.06
2017-03-13T04:34:09.136Z,83.06
2017-03-13T04:35:19.014Z,83.15
2017-03-13T04:36:28.466Z,82.97
2017-03-13T04:37:37.543Z,83.25
2017-03-13T04:38:47.399Z,82.97
2017-03-13T04:39:57.614Z,82.87
2017-03-13T04:41:06.695Z,82.97
2017-03-13T04:42:16.356Z,83.06
2017-03-13T04:43:25.824Z,83.06
2017-03-13T04:44:36.445Z,83.06
2017-03-13T04:45:47.064Z,82.78
2017-03-13T04:46:57.315Z,82.97
2017-03-13T04:48:07.178Z,83.53
2017-03-13T04:49:16.260Z,82.97
2017-03-13T04:50:26.868Z,82.97
2017-03-13T04:51:36.719Z,83.06
2017-03-13T04:52:46.574Z,83.44
2017-03-13T04:53:56.799Z,83.44
2017-03-13T04:55:06.645Z,83.25
2017-03-13T04:56:16.475Z,82.87
2017-03-13T04:57:27.107Z,83.63
2017-03-13T04:58:36.977Z,83.44
2017-03-13T04:59:46.445Z,83.25
2017-03-13T05:00:56.281Z,83.82
2017-03-13T05:02:06.129Z,84.48
2017-03-13T05:03:15.208Z,84.58
2017-03-13T05:04:25.444Z,84.14
2017-03-13T05:05:35.679Z,84.33
2017-03-13T05:06:45.915Z,83.86
2017-03-13T05:07:55.769Z,83.58
2017-03-13T05:09:05.988Z,83.29
2017-03-13T05:10:15.843Z,82.72
2017-03-13T05:11:26.474Z,82.72
2017-03-13T05:12:36.358Z,82.63
2017-03-13T05:13:46.577Z,82.25
2017-03-13T05:14:56.054Z,82.53
2017-03-13T05:16:05.905Z,82.34
2017-03-13T05:17:15.586Z,82.63
2017-03-13T05:18:25.041Z,82.63
2017-03-13T05:19:35.664Z,82.44
2017-03-13T05:20:45.503Z,82.34
2017-03-13T05:21:55.358Z,82.72
2017-03-13T05:23:05.598Z,82.53
2017-03-13T05:24:15.438Z,82.91
2017-03-13T05:25:25.676Z,82.4
2017-03-13T05:26:35.940Z,82.97
2017-03-13T05:27:45.790Z,82.5
2017-03-13T05:28:55.453Z,82.87
2017-03-13T05:30:05.296Z,82.4
2017-03-13T05:31:15.157Z,82.68
2017-03-13T05:32:25.016Z,83.15
2017-03-13T05:33:35.237Z,82.78
2017-03-13T05:34:46.052Z,83.25
2017-03-13T05:35:55.897Z,83.44
2017-03-13T05:37:06.131Z,83.44
2017-03-13T05:38:16.773Z,83.63
2017-03-13T05:39:26.231Z,83.63
2017-03-13T05:40:36.838Z,83.34
2017-03-13T05:41:47.063Z,83.15
2017-03-13T05:42:56.512Z,83.15
2017-03-13T05:44:06.737Z,83.82
2017-03-13T05:45:16.200Z,83.82
2017-03-13T05:46:26.711Z,83.25
2017-03-13T05:47:36.931Z,83.53
2017-03-13T05:48:47.549Z,83.82
2017-03-13T05:49:57.762Z,83.63
2017-03-13T05:51:07.227Z,83.91
2017-03-13T05:52:16.687Z,84.01
2017-03-13T05:53:26.903Z,83.72
2017-03-13T05:54:36.357Z,83.91
2017-03-13T05:55:45.819Z,84.1
2017-03-13T05:56:55.658Z,84.2
2017-03-13T05:58:05.113Z,83.91
2017-03-13T05:59:14.575Z,84.29
2017-03-13T06:00:24.416Z,84.1
2017-03-13T06:01:34.645Z,83.91
2017-03-13T06:02:44.879Z,83.91
2017-03-13T06:03:55.125Z,83.82
2017-03-13T06:05:04.575Z,83.63
2017-03-13T06:06:14.424Z,84.01
2017-03-13T06:07:24.311Z,84.01
2017-03-13T06:08:33.761Z,83.82
2017-03-13T06:09:43.636Z,84.2
2017-03-13T06:10:52.705Z,84.2
2017-03-13T06:12:02.563Z,83.91
2017-03-13T06:13:12.413Z,84.2
2017-03-13T06:14:22.259Z,84.2
2017-03-13T06:15:32.731Z,84.39
2017-03-13T06:16:42.571Z,84.29
2017-03-13T06:17:52.412Z,84.48
2017-03-13T06:19:02.250Z,84.67
2017-03-13T06:20:11.337Z,84.67
2017-03-13T06:21:21.567Z,84.86
2017-03-13T06:22:31.039Z,85.14
2017-03-13T06:23:41.277Z,85.05
2017-03-13T06:24:51.510Z,85.14
2017-03-13T06:26:01.349Z,84.9
2017-03-13T06:27:11.439Z,84.9
2017-03-13T06:28:22.081Z,85
2017-03-13T06:29:32.327Z,84.71
2017-03-13T06:30:42.175Z,84.71
2017-03-13T06:31:51.658Z,84.81
2017-03-13T06:33:01.499Z,84.81
2017-03-13T06:34:11.344Z,84.71
2017-03-13T06:35:21.191Z,84.42
2017-03-13T06:36:31.437Z,84.23
2017-03-13T06:37:40.933Z,84.14
2017-03-13T06:38:50.774Z,84.05
2017-03-13T06:40:01.006Z,84.14
2017-03-13T06:41:10.901Z,84.52
2017-03-13T06:42:21.117Z,84
2017-03-13T06:43:30.585Z,84
2017-03-13T06:44:39.651Z,83.52
2017-03-13T06:45:49.484Z,83.9
2017-03-13T06:46:59.325Z,83.9
2017-03-13T06:48:09.578Z,83.56
2017-03-13T06:49:18.663Z,83
2017-03-13T06:50:28.789Z,83.47
2017-03-13T06:51:39.057Z,83.09
2017-03-13T06:52:49.286Z,83.18
2017-03-13T06:53:59.545Z,83.09
2017-03-13T06:55:09.391Z,83.28
2017-03-13T06:56:19.635Z,82.81
2017-03-13T06:57:29.090Z,83.56
2017-03-13T06:58:39.693Z,83.28
2017-03-13T06:59:49.564Z,82.85
2017-03-13T07:00:59.034Z,82.66
2017-03-13T07:02:08.382Z,82.37
2017-03-13T07:03:18.615Z,82.28
2017-03-13T07:04:28.882Z,82.47
2017-03-13T07:05:39.135Z,82.37
2017-03-13T07:06:49.769Z,81.99
2017-03-13T07:07:59.632Z,82.28
2017-03-13T07:09:09.513Z,82.09
2017-03-13T07:10:18.968Z,81.99
2017-03-13T07:11:28.033Z,81.71
2017-03-13T07:12:38.262Z,81.9
2017-03-13T07:13:48.746Z,81.09
2017-03-13T07:14:58.996Z,81.27
2017-03-13T07:16:08.848Z,80.99
2017-03-13T07:17:18.736Z,82.23
2017-03-13T07:18:28.194Z,80.43
2017-03-13T07:19:38.410Z,80.99
2017-03-13T07:20:49.311Z,80.46
2017-03-13T07:21:59.153Z,80.18
2017-03-13T07:23:09.003Z,80.27
2017-03-13T07:24:19.626Z,80.08
2017-03-13T07:25:29.372Z,79.61
2017-03-13T07:26:39.365Z,79.71
2017-03-13T07:27:49.221Z,79.33
2017-03-13T07:28:59.497Z,78.47
2017-03-13T07:30:09.409Z,79.8
2017-03-13T07:31:18.880Z,79.8
2017-03-13T07:32:28.426Z,79.33
2017-03-13T07:33:38.264Z,79.14
2017-03-13T07:34:47.726Z,79.61
2017-03-13T07:35:57.186Z,78.75
2017-03-13T07:37:07.080Z,78.75
2017-03-13T07:38:17.455Z,78.19
2017-03-13T07:39:26.928Z,78.56
2017-03-13T07:40:36.413Z,77.71
2017-03-13T07:41:46.364Z,76.42
2017-03-13T07:42:56.148Z,76.42
2017-03-13T07:44:05.999Z,76.71
2017-03-13T07:45:16.227Z,73.57
2017-03-13T07:46:25.707Z,74.37
2017-03-13T07:47:35.586Z,75.6
2017-03-13T07:48:45.677Z,75.04
2017-03-13T07:49:55.519Z,75.6
2017-03-13T07:51:04.819Z,76.27
2017-03-13T07:52:14.719Z,76.14
2017-03-13T07:53:24.188Z,76.04
2017-03-13T07:54:33.675Z,76.14
2017-03-13T07:55:43.962Z,76.71
2017-03-13T07:56:53.434Z,76.71
2017-03-13T07:58:03.505Z,76.61
2017-03-13T07:59:13.841Z,75.47
2017-03-13T08:00:23.698Z,74.71
2017-03-13T08:01:33.176Z,72.91
2017-03-13T08:02:43.033Z,72.72
2017-03-13T08:03:52.499Z,72.66
2017-03-13T08:05:01.579Z,72.09
2017-03-13T08:06:10.674Z,72.09
2017-03-13T08:07:20.916Z,71.71
2017-03-13T08:08:31.140Z,71.86
2017-03-13T08:09:40.994Z,71.81
2017-03-13T08:10:50.861Z,71.86
2017-03-13T08:12:01.478Z,72.06
2017-03-13T08:13:10.946Z,72.15
2017-03-13T08:14:20.846Z,72.53
2017-03-13T08:15:30.723Z,73.1
2017-03-13T08:16:40.176Z,73.1
2017-03-13T08:17:50.297Z,73.25
2017-03-13T08:18:59.757Z,72.59
2017-03-13T08:20:09.219Z,72.53
2017-03-13T08:21:19.057Z,72.44
2017-03-13T08:22:28.143Z,73
2017-03-13T08:23:38.383Z,73.19
2017-03-13T08:24:48.225Z,72.81
2017-03-13T08:25:58.067Z,72.25
2017-03-13T08:27:07.908Z,72.72
2017-03-13T08:28:17.764Z,73.1
2017-03-13T08:29:27.468Z,73
2017-03-13T08:30:36.942Z,73
2017-03-13T08:31:46.800Z,73.29
2017-03-13T08:32:57.053Z,72.95
2017-03-13T08:34:06.524Z,72.75
2017-03-13T08:35:15.611Z,72.28
2017-03-13T08:36:25.858Z,70.57
2017-03-13T08:37:36.098Z,71.04
2017-03-13T08:38:45.571Z,71.37
2017-03-13T08:39:55.816Z,70.42
2017-03-13T08:41:05.999Z,70.32
2017-03-13T08:42:16.441Z,68.99
2017-03-13T08:43:27.249Z,68.74
2017-03-13T08:44:37.171Z,69.12
2017-03-13T08:45:47.178Z,69.31
2017-03-13T08:46:57.062Z,69.41
2017-03-13T08:48:07.316Z,69.88
2017-03-13T08:49:16.922Z,70.07
2017-03-13T08:50:27.173Z,70.17
2017-03-13T08:51:37.416Z,70.54
2017-03-13T08:52:47.675Z,69.5
2017-03-13T08:53:57.462Z,70.49
2017-03-13T08:55:07.482Z,70.39
2017-03-13T08:56:17.397Z,69.63
2017-03-13T08:57:27.329Z,68.43
2017-03-13T08:58:37.487Z,68.24
2017-03-13T08:59:47.737Z,68.62
2017-03-13T09:00:57.576Z,68.71
2017-03-13T09:02:06.685Z,67.57
2017-03-13T09:03:16.522Z,66.53
2017-03-13T09:04:26.387Z,66.56
2017-03-13T09:05:36.285Z,66.66
2017-03-13T09:06:46.549Z,66.11
2017-03-13T09:07:57.195Z,65.64
2017-03-13T09:09:06.655Z,65.36
2017-03-13T09:10:16.664Z,64.4
2017-03-13T09:11:25.817Z,63.83
2017-03-13T09:12:35.047Z,63.64
2017-03-13T09:13:47.888Z,63.86
2017-03-13T09:14:57.907Z,63.86
2017-03-13T09:16:07.171Z,63.67
2017-03-13T09:17:17.327Z,63.73
2017-03-13T09:18:27.229Z,63.92
2017-03-13T09:19:37.800Z,64.59
2017-03-13T09:20:47.863Z,64.31
2017-03-13T09:21:57.258Z,65.64
2017-03-13T09:23:06.509Z,67.16
2017-03-13T09:24:17.277Z,65.92
2017-03-13T09:25:26.952Z,64.62
2017-03-13T09:26:36.728Z,67.64
2017-03-13T09:27:47.272Z,65.55
2017-03-13T09:28:57.330Z,64.59
2017-03-13T09:30:07.737Z,63.73
2017-03-13T09:31:18.033Z,66.11
2017-03-13T09:32:28.732Z,67.48
2017-03-13T09:33:39.074Z,66.44
2017-03-13T09:34:49.283Z,65.67
2017-03-13T09:35:58.513Z,65.13
2017-03-13T09:37:08.370Z,63.99
2017-03-13T09:38:17.268Z,62.46
2017-03-13T09:39:27.974Z,63.73
2017-03-13T09:40:38.391Z,61.38
2017-03-13T09:41:49.968Z,59.88
2017-03-13T09:42:59.558Z,57.24
2017-03-13T09:44:09.668Z,54.3
2017-03-13T09:45:19.917Z,53.06
2017-03-13T09:46:31.072Z,51.27
2017-03-13T09:47:40.893Z,50.41
2017-03-13T09:48:50.154Z,49.93
2017-03-13T09:50:00.750Z,48.88
2017-03-13T09:51:10.812Z,48.59
2017-03-13T09:52:24.620Z,48.13
2017-03-13T09:53:40.289Z,46.62
2017-03-13T09:54:53.986Z,47.42
2017-03-13T09:56:04.401Z,46.94
2017-03-13T09:57:14.573Z,46.86
2017-03-13T09:58:24.929Z,46
2017-03-13T09:59:34.310Z,43.34
2017-03-13T10:00:44.875Z,43.15
2017-03-13T10:01:55.601Z,43.17
2017-03-13T10:03:06.453Z,41.54
2017-03-13T10:04:17.137Z,40.2
2017-03-13T10:05:27.691Z,41.06
2017-03-13T10:06:37.756Z,40.58
2017-03-13T10:07:48.597Z,41.23
2017-03-13T10:08:59.105Z,41.61
2017-03-13T10:10:08.989Z,42.47
2017-03-13T10:11:19.268Z,42.21
2017-03-13T10:12:29.115Z,41.63
2017-03-13T10:13:38.600Z,40.87
2017-03-13T10:14:49.265Z,41.63
2017-03-13T10:15:59.513Z,41.44
2017-03-13T10:17:09.399Z,40
2017-03-13T10:18:19.641Z,40.1
2017-03-13T10:19:29.523Z,40.27
2017-03-13T10:20:38.868Z,41.6
2017-03-13T10:21:49.504Z,42.53
2017-03-13T10:22:59.729Z,42.99
2017-03-13T10:24:10.377Z,42.91
2017-03-13T10:25:20.241Z,42.91
2017-03-13T10:26:29.994Z,43.01
2017-03-13T10:27:40.283Z,44.9
2017-03-13T10:28:50.928Z,45.94
2017-03-13T10:30:00.801Z,44.5
2017-03-13T10:31:10.300Z,44.31
2017-03-13T10:32:19.779Z,43.54
2017-03-13T10:33:29.262Z,43.56
2017-03-13T10:34:39.122Z,44.12
2017-03-13T10:35:49.001Z,44.5
2017-03-13T10:36:58.095Z,44.23
2017-03-13T10:38:07.203Z,43.08
2017-03-13T10:39:17.118Z,43.54
2017-03-13T10:40:27.399Z,44.29
2017-03-13T10:41:36.876Z,44.86
2017-03-13T10:42:46.770Z,46.96
2017-03-13T10:43:57.202Z,48.18
2017-03-13T10:45:07.453Z,50.74
2017-03-13T10:46:17.731Z,49.11
2017-03-13T10:47:26.825Z,49.47
2017-03-13T10:48:36.686Z,50.04
2017-03-13T10:49:46.570Z,49.95
2017-03-13T10:50:56.844Z,50.71
2017-03-13T10:52:06.319Z,53
2017-03-13T10:53:16.204Z,52.15
2017-03-13T10:54:26.059Z,51.48
2017-03-13T10:55:36.167Z,51.19
2017-03-13T10:56:46.040Z,52.62
2017-03-13T10:57:55.122Z,52.43
2017-03-13T10:59:04.637Z,51.21
2017-03-13T11:00:14.889Z,50.48
2017-03-13T11:01:25.530Z,47.71
2017-03-13T11:02:35.387Z,46.48
2017-03-13T11:03:44.868Z,46.2
2017-03-13T11:04:56.732Z,45.62
2017-03-13T11:06:17.826Z,45.53
2017-03-13T11:07:38.294Z,45.15
2017-03-13T11:08:54.226Z,45.62
2017-03-13T11:10:14.830Z,47.53
2017-03-13T11:11:32.252Z,48.02
2017-03-13T11:12:49.134Z,46.96
2017-03-13T11:13:58.634Z,46.75
2017-03-13T11:15:08.513Z,47.42
2017-03-13T11:16:18.770Z,47.52
2017-03-13T11:17:29.417Z,46.84
2017-03-13T11:18:39.313Z,46.27
2017-03-13T11:19:49.406Z,46.37
2017-03-13T11:20:59.279Z,45.7
2017-03-13T11:22:09.143Z,45.43
2017-03-13T11:23:19.397Z,44.76
2017-03-13T11:24:29.666Z,44.79
2017-03-13T11:25:39.966Z,44.62
2017-03-13T11:26:50.205Z,43.87
2017-03-13T11:28:00.067Z,42.63
2017-03-13T11:29:10.328Z,41.4
2017-03-13T11:30:20.177Z,41.11
2017-03-13T11:31:30.444Z,41.02
2017-03-13T11:32:39.917Z,41.5
2017-03-13T11:33:49.817Z,41.21
2017-03-13T11:35:00.105Z,42.74
2017-03-13T11:36:09.956Z,43.01
2017-03-13T11:37:19.052Z,42.91
2017-03-13T11:38:29.327Z,43.41
2017-03-13T11:39:39.626Z,43.2
2017-03-13T11:40:49.887Z,43.3
2017-03-13T11:42:00.151Z,44.33
2017-03-13T11:43:10.584Z,44.33
2017-03-13T11:44:20.817Z,44.9
2017-03-13T11:45:31.050Z,45.09
2017-03-13T11:46:40.926Z,44.81
2017-03-13T11:47:51.174Z,45.19
2017-03-13T11:49:01.407Z,45.86
2017-03-13T11:50:11.675Z,46.12
2017-03-13T11:51:20.830Z,46.98
2017-03-13T11:52:31.095Z,47.63
2017-03-13T11:53:41.010Z,47.34
2017-03-13T11:54:50.706Z,48.02
2017-03-13T11:56:00.567Z,47.92
2017-03-13T11:57:10.059Z,47.92
2017-03-13T11:58:19.540Z,49.26
2017-03-13T11:59:29.410Z,48.75
2017-03-13T12:00:39.290Z,49.07
2017-03-13T12:01:48.778Z,49.93
2017-03-13T12:02:59.035Z,49.93
2017-03-13T12:04:08.134Z,48.61
2017-03-13T12:05:17.984Z,48.04
2017-03-13T12:06:28.481Z,47.49
2017-03-13T12:07:38.707Z,48.04
2017-03-13T12:08:48.962Z,48.23
2017-03-13T12:09:59.225Z,48.23
2017-03-13T12:11:09.474Z,48.9
2017-03-13T12:12:18.972Z,49
2017-03-13T12:13:28.452Z,49.29
2017-03-13T12:14:37.955Z,51.32
2017-03-13T12:15:48.195Z,49.11
2017-03-13T12:16:58.085Z,49.31
2017-03-13T12:18:08.189Z,49.69
2017-03-13T12:19:18.045Z,50.77
2017-03-13T12:20:28.285Z,50.96
2017-03-13T12:21:37.767Z,50.77
2017-03-13T12:22:47.628Z,49.52
2017-03-13T12:23:57.474Z,48.11
2017-03-13T12:25:06.176Z,47.44
2017-03-13T12:26:16.026Z,46.79
2017-03-13T12:27:25.912Z,46.31
2017-03-13T12:28:35.774Z,46.31
2017-03-13T12:29:45.882Z,45.74
2017-03-13T12:30:55.738Z,44.23
2017-03-13T12:32:05.617Z,43.65
2017-03-13T12:33:14.330Z,44.7
2017-03-13T12:34:24.185Z,44.61
2017-03-13T12:35:33.685Z,44.7
2017-03-13T12:36:43.557Z,43.07
2017-03-13T12:37:53.018Z,43.55
2017-03-13T12:39:02.511Z,44.03
2017-03-13T12:40:12.368Z,44.51
2017-03-13T12:41:22.116Z,44.9
2017-03-13T12:42:31.594Z,44.03
2017-03-13T12:43:41.461Z,44.23
2017-03-13T12:44:51.358Z,43.84
2017-03-13T12:46:01.215Z,43.36
2017-03-13T12:47:10.675Z,43.63
2017-03-13T12:48:20.544Z,44.56
2017-03-13T12:49:30.798Z,45.02
2017-03-13T12:50:41.036Z,46.62
2017-03-13T12:55:17.583Z,48.54
2017-03-13T12:56:27.843Z,47.39
2017-03-13T12:57:37.303Z,47.11
2017-03-13T12:58:47.531Z,48.25
2017-03-13T12:59:57.025Z,48.64
2017-03-13T13:01:06.858Z,47.97
2017-03-13T13:02:16.676Z,48.07
2017-03-13T13:03:25.724Z,48.18
2017-03-13T13:04:35.035Z,46.65
2017-03-13T13:05:44.857Z,45.72
2017-03-13T13:06:54.679Z,45.12
2017-03-13T13:08:04.890Z,46.65
2017-03-13T13:09:15.094Z,46.72
2017-03-13T13:10:25.291Z,50.36
2017-03-13T13:11:34.718Z,49.31
2017-03-13T13:12:43.763Z,50.17
2017-03-13T13:13:52.432Z,49.21
2017-03-13T13:15:01.102Z,49.21
2017-03-13T13:16:10.404Z,48.44
2017-03-13T13:17:19.839Z,49.02
2017-03-13T13:18:28.906Z,48.64
2017-03-13T13:19:38.732Z,49.21
2017-03-13T13:20:48.549Z,48.25
2017-03-13T13:21:58.367Z,49.14
2017-03-13T13:23:08.257Z,48.95
2017-03-13T13:24:18.238Z,50
2017-03-13T13:25:28.057Z,50.29
2017-03-13T13:26:37.877Z,47.51
2017-03-13T13:27:48.323Z,48.09
2017-03-13T13:28:58.550Z,47.99
2017-03-13T13:30:07.760Z,47.3
2017-03-13T13:31:17.192Z,47.3
2017-03-13T13:32:26.674Z,48.16
2017-03-13T13:33:36.879Z,49.02
2017-03-13T13:34:47.079Z,50.36
2017-03-13T13:35:57.281Z,50.65
2017-03-13T13:37:07.483Z,49.79
2017-03-13T13:38:16.928Z,47.03
2017-03-13T13:39:27.011Z,46.82
2017-03-13T13:40:36.527Z,46.82
2017-03-13T13:41:47.121Z,46.62
2017-03-13T13:42:56.554Z,47.68
2017-03-13T13:44:07.145Z,48.93
2017-03-13T13:45:17.114Z,49.62
2017-03-13T13:46:27.710Z,48.85
2017-03-13T13:47:37.531Z,47.71
2017-03-13T13:48:48.173Z,49.24
2017-03-13T13:49:57.609Z,50.17
2017-03-13T13:51:07.624Z,50.26
2017-03-13T13:52:17.857Z,51.42
2017-03-13T13:53:28.086Z,52.09
2017-03-13T13:54:37.517Z,51.77
2017-03-13T13:55:48.109Z,51.68
2017-03-13T13:56:58.311Z,53.02
2017-03-13T13:58:08.121Z,54.55
2017-03-13T13:59:18.711Z,53.97
2017-03-13T14:00:28.558Z,54.67
2017-03-13T14:01:38.763Z,52.28
2017-03-13T14:02:48.970Z,52.47
2017-03-13T14:03:58.046Z,51.03
2017-03-13T14:05:07.093Z,51.99
2017-03-13T14:06:16.175Z,52.09
2017-03-13T14:07:24.848Z,50.84
2017-03-13T14:08:35.048Z,51.32
2017-03-13T14:09:44.933Z,52.54
2017-03-13T14:10:54.137Z,53.78
2017-03-13T14:12:03.959Z,55.12
2017-03-13T14:13:14.105Z,54.93
2017-03-13T14:14:29.929Z,54.55
2017-03-13T14:15:39.224Z,55.79
2017-03-13T14:16:48.651Z,54.16
2017-03-13T14:17:58.534Z,54.07
2017-03-13T14:19:07.968Z,54.45
2017-03-13T14:20:17.784Z,55.31
2017-03-13T14:21:27.223Z,56.15
2017-03-13T14:22:37.050Z,56.62
2017-03-13T14:23:46.524Z,57.29
2017-03-13T14:24:56.367Z,58.63
2017-03-13T14:26:06.181Z,58.95
2017-03-13T14:27:15.991Z,59.33
2017-03-13T14:28:25.432Z,57.9
2017-03-13T14:29:35.638Z,56.84
2017-03-13T14:30:44.784Z,56.84
2017-03-13T14:31:54.595Z,58.09
2017-03-13T14:33:04.030Z,61.91
2017-03-13T14:34:13.469Z,62.97
2017-03-13T14:35:23.276Z,63.42
2017-03-13T14:36:32.330Z,63.7
2017-03-13T14:37:42.145Z,65.23
2017-03-13T14:38:51.965Z,65.61
2017-03-13T14:40:01.822Z,66.28
2017-03-13T14:41:11.245Z,66
2017-03-13T14:42:19.898Z,66.67
2017-03-13T14:43:28.817Z,66.67
2017-03-13T14:44:39.397Z,66.86
2017-03-13T14:45:49.591Z,67.72
2017-03-13T14:46:59.486Z,67.43
2017-03-13T14:48:08.532Z,67.69
2017-03-13T14:49:18.753Z,68.01
2017-03-13T14:50:28.604Z,67.91
2017-03-13T14:51:38.420Z,67.72
2017-03-13T14:52:48.620Z,67.97
2017-03-13T14:53:58.454Z,68.49
2017-03-13T14:55:07.885Z,68.49
2017-03-13T14:56:17.694Z,68.84
2017-03-13T14:57:26.367Z,68.49
2017-03-13T14:58:36.568Z,68.49
2017-03-13T14:59:46.764Z,68.68
2017-03-13T15:00:56.970Z,68.58
2017-03-13T15:02:05.635Z,68.58
2017-03-13T15:03:14.683Z,68.58
2017-03-13T15:04:24.907Z,69.44
2017-03-13T15:05:35.114Z,69.82
2017-03-13T15:06:45.559Z,69.64
2017-03-13T15:07:54.223Z,69.15
2017-03-13T15:09:04.035Z,69.64